• Join FlightAware (Why Join?)
  • Login
  • US Flag 
07:13PM EDT


 

Airport Tracker/Info


-or-


 

Live Flight TrackerFlight Track Log ✈ TAM3135 ✈ 21-Jul-2013 ✈ SBVT / VIX - SBSP / CGH

Flight Track Log - Related Links

Times and Time Zones

All times are in EDT time to prevent confusion due to time zone crossing. See the TAM3135 flight status page for this flight to view local times or setup timezone preferences in your user account.

Time Position Orientation Groundspeed Altitude Reporting Facility
EDT Latitude Longitude Course Direction KTS MPH feet Rate Location/Type
06:44PM -21.3777 -42.3202 239° Southwest  Level Estimated
06:45PM -21.4220 -42.4022 240° Southwest  Level Estimated
06:46PM -21.4662 -42.4842 240° Southwest  Level Estimated
06:47PM -21.5104 -42.5663 240° Southwest  Level Estimated
06:48PM -21.5546 -42.6485 240° Southwest  Level Estimated
06:49PM -21.5987 -42.7307 240° Southwest  Level Estimated
06:50PM -21.6428 -42.8129 240° Southwest  Level Estimated
06:51PM -21.6868 -42.8952 240° Southwest  Level Estimated
06:52PM -21.7308 -42.9775 240° Southwest  Level Estimated
06:53PM -21.7748 -43.0599 240° Southwest  Level Estimated
06:54PM -21.8187 -43.1423 240° Southwest  Level Estimated
06:55PM -21.8626 -43.2248 240° Southwest  Level Estimated
06:56PM -21.9064 -43.3074 240° Southwest  Level Estimated
06:57PM -21.9502 -43.3900 240° Southwest  Level Estimated
06:58PM -21.9940 -43.4726 240° Southwest  Level Estimated
06:59PM -22.0377 -43.5553 240° Southwest  Level Estimated
07:00PM -22.0814 -43.6380 240° Southwest  Level Estimated
07:01PM -22.1250 -43.7208 240° Southwest  Level Estimated
07:02PM -22.1686 -43.8037 240° Southwest  Level Estimated
07:03PM -22.2121 -43.8866 240° Southwest  Level Estimated
07:04PM -22.2556 -43.9695 240° Southwest  Level Estimated
07:05PM -22.2991 -44.0525 240° Southwest  Level Estimated
07:06PM -22.3425 -44.1356 241° Southwest  Level Estimated
07:07PM -22.3859 -44.2187 241° Southwest  Level Estimated
07:08PM -22.4292 -44.3018 241° Southwest  Level Estimated
07:09PM -22.4725 -44.3850 241° Southwest  Level Estimated
07:10PM -22.5157 -44.4683 241° Southwest  Level Estimated
07:11PM -22.5590 -44.5516 241° Southwest  Level Estimated
07:12PM -22.6021 -44.6350 241° Southwest  Level Estimated
07:13PM -22.6452 -44.7184 241° Southwest  Level Estimated
07:14PM -22.6883 -44.8019 241° Southwest  Level Estimated
07:15PM -22.7313 -44.8854 241° Southwest  Level Estimated
07:16PM -22.7743 -44.9689 241° Southwest  Level Estimated
07:17PM -22.8173 -45.0526 241° Southwest  Level Estimated
07:18PM -22.8602 -45.1363 241° Southwest  Level Estimated
07:19PM -22.9030 -45.2200 241° Southwest  Level Estimated
07:20PM -22.9459 -45.3038 241° Southwest  Level Estimated
07:21PM -22.9886 -45.3876 241° Southwest  Level Estimated
07:22PM -23.0313 -45.4715 241° Southwest  Level Estimated
07:23PM -23.0740 -45.5554 241° Southwest  Level Estimated
07:24PM -23.1167 -45.6394 241° Southwest  Level Estimated
07:25PM -23.1593 -45.7235 241° Southwest  Level Estimated
07:26PM -23.2018 -45.8076 241° Southwest  Level Estimated
07:27PM -23.2443 -45.8918 241° Southwest  Level Estimated
07:28PM -23.2868 -45.9760 241° Southwest  Level Estimated
07:29PM -23.3328 -46.0673 241° Southwest  Level Estimated
07:30PM -23.3787 -46.1588 241° Southwest  Level Estimated
07:31PM -23.4246 -46.2503 241° Southwest  Level Estimated
07:32PM -23.4704 -46.3419 241° Southwest  Level Estimated
07:33PM -23.5162 -46.4335 241° Southwest  Level Estimated
07:34PM -23.5620 -46.5252 241° Southwest  Level Estimated
07:35PM -23.6076 -46.6170 241° Southwest  Level Estimated
07:36PM -23.6267 -46.6554 242° Southwest  Level Estimated
07:37PM -23.6267 -46.6554 114° Southeast  Level Estimated
07:38PM -23.6267 -46.6554 114° Southeast  Level Estimated
07:39PM -23.6267 -46.6554 114° Southeast  Level Estimated
07:40PM -23.6267 -46.6554 114° Southeast  Level Estimated
07:41PM -23.6267 -46.6554 114° Southeast  Level Estimated
07:42PM -23.6267 -46.6554 114° Southeast  Level Estimated
07:43PM -23.6267 -46.6554 114° Southeast  Level Estimated
07:44PM -23.6267 -46.6554 114° Southeast  Level Estimated
07:45PM -23.6267 -46.6554 114° Southeast  Level Estimated
07:46PM -23.6267 -46.6554 114° Southeast  Level Estimated